WetterOnline ( https://www.wetteronline.de )

Wetter aktuell Mertingen

Aktuelles Wetter: Harburg (503m)

6-stündlich | Neueste Meldungen
Ortszeit Temperatur Wetter
Di, 27.07. 20:00 22.4° C bedeckt
Di, 27.07. 14:00 23.7° C leicht bewölkt
Di, 27.07. 8:00 15.5° C bewölkt
Di, 27.07. 2:00 14.7° C wolkenlos
Mo, 26.07. 20:00 15.1° C bedeckt
Mo, 26.07. 14:00 22.1° C bedeckt
Mo, 26.07. 8:00 16.1° C bewölkt
Mo, 26.07. 2:00 16.3° C leicht bewölkt
Ortszeit Temperatur Wetter
Mi, 28.07. 1:30 18.2° C wolkig
Mi, 28.07. 1:20 18.2° C wolkig
Mi, 28.07. 1:10 18.5° C bewölkt
Mi, 28.07. 1:00 19.1° C wolkig
Mi, 28.07. 0:50 19.1° C wolkig
Mi, 28.07. 0:40 19.0° C bedeckt
Mi, 28.07. 0:30 19.2° C wolkig
Mi, 28.07. 0:00 19.3° C leichter Regen
Di, 27.07. 23:30 19.6° C bewölkt
Di, 27.07. 23:00 20.4° C leichter Regen
Di, 27.07. 22:30 20.6° C leichter Regen
Ortszeit Relative Feuchte Sichtweite
Di, 27.07. 20:00 68% 35 km
Di, 27.07. 14:00 55% 55 km
Di, 27.07. 8:00 98% 5.0 km
Di, 27.07. 2:00 99% 15 km
Mo, 26.07. 20:00 94% 40 km
Mo, 26.07. 14:00 61% 65 km
Mo, 26.07. 8:00 97% 6 km
Mo, 26.07. 2:00 92% 40 km
Ortszeit Relative Feuchte Sichtweite
Mi, 28.07. 1:30 78% 45 km
Mi, 28.07. 1:20 78% -
Mi, 28.07. 1:10 77% -
Mi, 28.07. 1:00 72% 50 km
Mi, 28.07. 0:50 72% -
Mi, 28.07. 0:40 72% -
Mi, 28.07. 0:30 71% 55 km
Mi, 28.07. 0:00 71% 55 km
Di, 27.07. 23:30 68% 50 km
Di, 27.07. 23:00 70% 35 km
Di, 27.07. 22:30 71% 45 km
Ortszeit Niederschlagsmenge Niederschlagsart
Di, 27.07. 20:00 0.0 l/m2 in 12 Std. -
Di, 27.07. 14:00 0.0 l/m2 in 6 Std. -
Di, 27.07. 8:00 0.0 l/m2 in 12 Std. -
Di, 27.07. 2:00 0.0 l/m2 in 6 Std. -
Mo, 26.07. 20:00 14 l/m2 in 12 Std. Regen
Mo, 26.07. 14:00 0.9 l/m2 in 6 Std. Regen
Mo, 26.07. 8:00 0.1 l/m2 in 12 Std. Regen
Mo, 26.07. 2:00 0.1 l/m2 in 6 Std. Regen
Ortszeit Niederschlagsmenge Niederschlagsart
Mi, 28.07. 1:30 0.0 l/m2 in 1 Std. -
Mi, 28.07. 1:20 keine Meldung -
Mi, 28.07. 1:10 keine Meldung -
Mi, 28.07. 1:00 0.1 l/m2 in 1 Std. Regen
Mi, 28.07. 0:50 keine Meldung -
Mi, 28.07. 0:40 keine Meldung -
Mi, 28.07. 0:30 0.1 l/m2 in 1 Std. Schneeregen
Mi, 28.07. 0:00 0.1 l/m2 in 1 Std. Regen
Di, 27.07. 23:30 0.1 l/m2 in 1 Std. Schneeregen
Di, 27.07. 23:00 0.1 l/m2 in 1 Std. Regen
Di, 27.07. 22:30 0.1 l/m2 in 1 Std. -
Ortszeit Stärke Spitze Richtung
km/h Bft. km/h Grad Sektor
Di, 27.07. 20:00 7 2 22 130° SO
Di, 27.07. 14:00 4 1 - 190° S
Di, 27.07. 8:00 7 2 17 180° S
Di, 27.07. 2:00 9 2 26 130° SO
Mo, 26.07. 20:00 4 1 61 110° O
Mo, 26.07. 14:00 4 1 14 30° NO
Mo, 26.07. 8:00 7 2 18 150° SO
Mo, 26.07. 2:00 9 2 15 150° SO
Ortszeit Stärke Spitze Richtung
km/h Bft. km/h Grad Sektor
Mi, 28.07. 1:30 11 2 24 220° SW
Mi, 28.07. 1:20 11 2 - 220° SW
Mi, 28.07. 1:10 9 2 - 210° SW
Mi, 28.07. 1:00 19 3 30 220° SW
Mi, 28.07. 0:50 19 3 - 220° SW
Mi, 28.07. 0:40 19 3 - 220° SW
Mi, 28.07. 0:30 22 4 30 220° SW
Mi, 28.07. 0:00 13 3 30 200° S
Di, 27.07. 23:30 19 3 30 220° SW
Di, 27.07. 23:00 11 2 19 190° S
Di, 27.07. 22:30 7 2 15 160° S
Ortszeit Untergrenze Bedeckung Gattung
total tief tief mittel hoch
Di, 27.07. 20:00 3000 m 8/8 8/8 - - -
Di, 27.07. 14:00 1350 m 4/8 2/8 - - -
Di, 27.07. 8:00 30 m 7/8 7/8 - - -
Di, 27.07. 2:00 - 0/8 0/8 - - -
Mo, 26.07. 20:00 3000 m 8/8 8/8 - - -
Mo, 26.07. 14:00 5400 m 8/8 8/8 - - -
Mo, 26.07. 8:00 2700 m 7/8 7/8 - - -
Mo, 26.07. 2:00 8400 m 3/8 0/8 - - -
Ortszeit Bedeckungsgrad in Achtel und Wolkenuntergrenze
Mi, 28.07. 1:30 1(1800m) 8(4500m) 8(5400m)
Mi, 28.07. 1:20 1(1800m) 8(4500m) 8(5400m)
Mi, 28.07. 1:10 5(2700m) 8(4500m) 8(6300m)
Mi, 28.07. 1:00 1(2400m) 8(3600m) 8(4500m)
Mi, 28.07. 0:50 1(2400m) 8(3600m) 8(4500m)
Mi, 28.07. 0:40 7(3300m) 8(3900m) 8(4800m)
Mi, 28.07. 0:30 1(2100m) 8(3600m) 8(4500m)
Mi, 28.07. 0:00 1(2100m) 8(3000m)
Di, 27.07. 23:30 7(3000m) 7(3600m)
Di, 27.07. 23:00 7(3000m) 7(3900m)
Di, 27.07. 22:30 1(1800m) 8(3900m) 8(4500m)
Ortszeit Luftdruck NN (hPa) Tendenz (hPa in 3 Std.)
Di, 27.07. 20:00 1012 - 0,8
Di, 27.07. 14:00 1014 - 0,7
Di, 27.07. 8:00 1016 + 0,1
Di, 27.07. 2:00 1016 - 0,4
Mo, 26.07. 20:00 1014 + 1,2
Mo, 26.07. 14:00 1012 - 0,5
Mo, 26.07. 8:00 1013 + 0,8
Mo, 26.07. 2:00 1012 0,0
Ortszeit Luftdruck NN (hPa) Tendenz (hPa in 3 Std.)
Mi, 28.07. 1:30 1013 + 0,2
Mi, 28.07. 1:20 1013 keine Meldung
Mi, 28.07. 1:10 1013 keine Meldung
Mi, 28.07. 1:00 1013 + 0,2
Mi, 28.07. 0:50 1013 keine Meldung
Mi, 28.07. 0:40 1013 keine Meldung
Mi, 28.07. 0:30 1013 + 0,7
Mi, 28.07. 0:00 1013 + 1,1
Di, 27.07. 23:30 1013 + 1,0
Di, 27.07. 23:00 1013 + 0,7
Di, 27.07. 22:30 1013 + 0,8
Ortszeit Schneehöhe (cm)
Di, 27.07. 20:00 -
Di, 27.07. 14:00 -
Di, 27.07. 8:00 -
Di, 27.07. 2:00 -
Mo, 26.07. 20:00 -
Mo, 26.07. 14:00 -
Mo, 26.07. 8:00 -
Mo, 26.07. 2:00 -
Ortszeit Schneehöhe (cm)
Mi, 28.07. 1:30 -
Mi, 28.07. 1:20 -
Mi, 28.07. 1:10 -
Mi, 28.07. 1:00 -
Mi, 28.07. 0:50 -
Mi, 28.07. 0:40 -
Mi, 28.07. 0:30 -
Mi, 28.07. 0:00 -
Di, 27.07. 23:30 -
Di, 27.07. 23:00 -
Di, 27.07. 22:30 -
Link zu dieser Seite / Seite empfehlen

Das Wetter in ...